createdAt,value
2017-07-05T00:01:40.003Z,20.70
2017-07-05T00:04:07.560Z,20.44
2017-07-05T00:06:35.309Z,20.47
2017-07-05T00:09:02.931Z,20.45
2017-07-05T00:11:30.524Z,20.45
2017-07-05T00:13:58.345Z,20.44
2017-07-05T00:16:25.962Z,20.47
2017-07-05T00:18:53.513Z,20.49
2017-07-05T00:21:21.129Z,20.46
2017-07-05T00:23:48.707Z,20.51
2017-07-05T00:26:16.442Z,20.42
2017-07-05T00:28:44.107Z,20.35
2017-07-05T00:31:11.902Z,20.11
2017-07-05T00:33:39.495Z,20.08
2017-07-05T00:36:07.760Z,20.07
2017-07-05T00:38:35.383Z,20.20
2017-07-05T00:41:02.941Z,19.38
2017-07-05T00:43:30.686Z,19.53
2017-07-05T00:45:58.309Z,19.70
2017-07-05T00:48:26.574Z,19.77
2017-07-05T00:50:54.981Z,19.89
2017-07-05T00:53:22.608Z,20.00
2017-07-05T00:55:50.696Z,19.83
2017-07-05T00:58:18.434Z,19.83
2017-07-05T01:00:46.034Z,19.71
2017-07-05T01:03:13.589Z,19.72
2017-07-05T01:05:41.235Z,19.74
2017-07-05T01:08:09.793Z,19.62
2017-07-05T01:10:37.542Z,19.68
2017-07-05T01:13:05.348Z,19.77
2017-07-05T01:15:32.927Z,19.70
2017-07-05T01:18:00.533Z,19.66
2017-07-05T01:20:28.077Z,19.56
2017-07-05T01:22:55.736Z,19.52
2017-07-05T01:25:23.334Z,19.59
2017-07-05T01:27:50.886Z,19.68
2017-07-05T01:30:18.573Z,19.57
2017-07-05T01:32:46.186Z,19.56
2017-07-05T01:35:13.782Z,19.51
2017-07-05T01:37:41.355Z,19.42
2017-07-05T01:40:08.949Z,19.44
2017-07-05T01:42:36.502Z,19.38
2017-07-05T01:45:04.211Z,19.44
2017-07-05T01:47:31.779Z,19.54
2017-07-05T01:49:59.565Z,19.51
2017-07-05T01:52:27.244Z,19.48
2017-07-05T01:54:55.113Z,19.37
2017-07-05T01:57:22.673Z,19.37
2017-07-05T01:59:50.260Z,19.44
2017-07-05T02:02:17.845Z,19.31
2017-07-05T02:04:45.459Z,19.26
2017-07-05T02:07:13.096Z,18.98
2017-07-05T02:09:40.751Z,19.00
2017-07-05T02:12:08.512Z,18.90
2017-07-05T02:14:36.280Z,18.61
2017-07-05T02:17:03.889Z,18.11
2017-07-05T02:19:31.437Z,18.13
2017-07-05T02:21:59.078Z,18.12
2017-07-05T02:24:26.677Z,18.25
2017-07-05T02:26:54.283Z,18.17
2017-07-05T02:29:22.094Z,18.20
2017-07-05T02:31:49.743Z,18.40
2017-07-05T02:34:17.391Z,18.50
2017-07-05T02:36:45.007Z,18.63
2017-07-05T02:39:12.597Z,18.77
2017-07-05T02:41:40.392Z,18.81
2017-07-05T02:44:07.981Z,18.84
2017-07-05T02:46:35.583Z,18.71
2017-07-05T02:49:03.192Z,18.73
2017-07-05T02:51:30.966Z,18.67
2017-07-05T02:53:58.575Z,18.73
2017-07-05T02:56:26.317Z,18.77
2017-07-05T02:58:53.940Z,18.65
2017-07-05T03:01:21.595Z,18.59
2017-07-05T03:03:49.156Z,18.62
2017-07-05T03:06:16.761Z,18.65
2017-07-05T03:08:44.845Z,18.78
2017-07-05T03:11:12.755Z,18.68
2017-07-05T03:13:40.281Z,18.78
2017-07-05T03:16:07.920Z,18.72
2017-07-05T03:18:35.503Z,18.82
2017-07-05T03:21:03.050Z,18.85
2017-07-05T03:23:30.619Z,18.78
2017-07-05T03:25:58.505Z,18.86
2017-07-05T03:28:26.262Z,18.86
2017-07-05T03:30:54.332Z,18.75
2017-07-05T03:33:23.817Z,18.52
2017-07-05T03:35:51.617Z,18.55
2017-07-05T03:38:19.314Z,18.70
2017-07-05T03:40:47.310Z,18.80
2017-07-05T03:43:15.960Z,18.78
2017-07-05T03:45:43.758Z,18.68
2017-07-05T03:48:12.239Z,18.53
2017-07-05T03:50:40.069Z,18.34
2017-07-05T03:53:07.997Z,18.54
2017-07-05T03:55:35.605Z,18.58
2017-07-05T03:58:03.174Z,18.61
2017-07-05T04:00:30.787Z,18.55
2017-07-05T04:02:58.743Z,18.61
2017-07-05T04:05:26.949Z,18.67
2017-07-05T04:07:54.938Z,18.70
2017-07-05T04:10:22.534Z,18.76
2017-07-05T04:12:50.113Z,18.77
2017-07-05T04:15:17.717Z,18.80
2017-07-05T04:17:45.246Z,18.80
2017-07-05T04:20:12.787Z,18.87
2017-07-05T04:22:40.378Z,18.99
2017-07-05T04:25:07.915Z,19.11
2017-07-05T04:27:35.492Z,19.26
2017-07-05T04:30:05.570Z,19.24
2017-07-05T04:32:33.142Z,21.00
2017-07-05T04:35:00.738Z,21.88
2017-07-05T04:37:28.355Z,22.47
2017-07-05T04:39:55.884Z,22.86
2017-07-05T04:42:23.437Z,23.21
2017-07-05T04:44:51.025Z,23.27
2017-07-05T04:47:18.570Z,23.45
2017-07-05T04:49:46.198Z,23.49
2017-07-05T04:52:13.858Z,23.52
2017-07-05T04:54:41.469Z,23.68
2017-07-05T04:57:09.021Z,24.05
2017-07-05T04:59:37.614Z,23.89
2017-07-05T05:02:05.213Z,22.28
2017-07-05T05:04:32.740Z,21.55
2017-07-05T05:07:00.513Z,21.16
2017-07-05T05:09:28.152Z,20.92
2017-07-05T05:11:55.706Z,20.84
2017-07-05T05:14:23.993Z,20.73
2017-07-05T05:16:51.587Z,20.73
2017-07-05T05:19:19.160Z,20.75
2017-07-05T05:21:46.725Z,20.78
2017-07-05T05:24:14.342Z,20.53
2017-07-05T05:26:41.913Z,20.63
2017-07-05T05:29:09.496Z,20.78
2017-07-05T05:31:37.079Z,20.92
2017-07-05T05:34:04.649Z,20.98
2017-07-05T05:36:32.219Z,21.14
2017-07-05T05:38:59.830Z,21.15
2017-07-05T05:41:27.392Z,21.42
2017-07-05T05:43:55.201Z,21.42
2017-07-05T05:46:23.026Z,21.62
2017-07-05T05:48:50.584Z,21.90
2017-07-05T05:51:18.952Z,22.16
2017-07-05T05:53:46.757Z,22.45
2017-07-05T05:56:14.383Z,22.57
2017-07-05T05:58:41.970Z,22.72
2017-07-05T06:01:09.569Z,22.90
2017-07-05T06:03:37.346Z,23.02
2017-07-05T06:06:04.890Z,23.30
2017-07-05T06:08:32.505Z,22.84
2017-07-05T06:11:00.096Z,23.29
2017-07-05T06:13:28.052Z,23.65
2017-07-05T06:15:56.558Z,23.75
2017-07-05T06:18:24.144Z,23.72
2017-07-05T06:20:51.705Z,23.31
2017-07-05T06:23:19.300Z,23.28
2017-07-05T06:25:46.925Z,23.88
2017-07-05T06:28:14.504Z,24.27
2017-07-05T06:30:42.127Z,24.50
2017-07-05T06:33:09.648Z,24.71
2017-07-05T06:35:37.428Z,24.58
2017-07-05T06:38:05.054Z,24.56
2017-07-05T06:40:32.614Z,24.94
2017-07-05T06:43:00.234Z,25.16
2017-07-05T06:45:27.998Z,24.84
2017-07-05T06:47:55.626Z,24.63
2017-07-05T06:50:23.179Z,24.92
2017-07-05T06:52:50.808Z,24.99
2017-07-05T06:55:18.417Z,25.44
2017-07-05T06:57:46.014Z,25.35
2017-07-05T07:00:13.686Z,25.84
2017-07-05T07:02:41.290Z,26.12
2017-07-05T07:05:08.909Z,26.22
2017-07-05T07:07:36.508Z,25.81
2017-07-05T07:10:04.130Z,25.83
2017-07-05T07:12:31.890Z,25.85
2017-07-05T07:14:59.481Z,26.22
2017-07-05T07:17:27.045Z,26.28
2017-07-05T07:19:54.637Z,26.54
2017-07-05T07:22:22.219Z,26.15
2017-07-05T07:24:50.503Z,26.04
2017-07-05T07:27:18.123Z,26.42
2017-07-05T07:29:45.721Z,26.54
2017-07-05T07:32:13.297Z,26.68
2017-07-05T07:34:40.884Z,26.99
2017-07-05T07:37:08.442Z,26.98
2017-07-05T07:39:36.104Z,27.26
2017-07-05T07:42:03.762Z,27.13
2017-07-05T07:44:31.316Z,27.22
2017-07-05T07:46:59.503Z,27.28
2017-07-05T07:49:27.085Z,27.54
2017-07-05T07:51:54.618Z,27.64
2017-07-05T07:54:22.230Z,27.90
2017-07-05T07:56:49.799Z,27.64
2017-07-05T07:59:17.415Z,27.60
2017-07-05T08:01:45.029Z,27.63
2017-07-05T08:04:12.562Z,27.26
2017-07-05T08:06:40.116Z,27.50
2017-07-05T08:09:07.707Z,27.76
2017-07-05T08:11:35.513Z,27.99
2017-07-05T08:14:03.143Z,28.33
2017-07-05T08:16:30.763Z,28.46
2017-07-05T08:18:58.345Z,28.58
2017-07-05T08:21:25.889Z,28.61
2017-07-05T08:23:53.492Z,28.16
2017-07-05T08:26:21.253Z,28.45
2017-07-05T08:28:49.098Z,28.86
2017-07-05T08:31:16.907Z,28.08
2017-07-05T08:33:45.261Z,28.33
2017-07-05T08:36:12.809Z,28.89
2017-07-05T08:38:40.487Z,29.01
2017-07-05T08:41:09.438Z,29.18
2017-07-05T08:43:40.415Z,28.87
2017-07-05T08:46:07.996Z,28.71
2017-07-05T08:48:36.075Z,28.85
2017-07-05T08:51:05.065Z,28.44
2017-07-05T08:53:32.675Z,28.28
2017-07-05T08:56:00.277Z,28.72
2017-07-05T08:58:27.851Z,28.87
2017-07-05T09:00:56.416Z,29.15
2017-07-05T09:03:24.823Z,28.98
2017-07-05T09:05:53.382Z,29.22
2017-07-05T09:08:21.034Z,29.79
2017-07-05T09:10:48.598Z,29.69
2017-07-05T09:13:16.147Z,29.78
2017-07-05T09:15:43.910Z,29.93
2017-07-05T09:18:11.449Z,30.10
2017-07-05T09:20:39.577Z,30.26
2017-07-05T09:23:07.545Z,30.25
2017-07-05T09:25:35.214Z,30.24
2017-07-05T09:28:02.825Z,30.16
2017-07-05T09:30:30.405Z,30.59
2017-07-05T09:32:57.990Z,30.72
2017-07-05T09:35:25.559Z,30.77
2017-07-05T09:37:53.555Z,30.60
2017-07-05T09:40:21.170Z,30.59
2017-07-05T09:42:48.725Z,30.20
2017-07-05T09:45:16.339Z,30.05
2017-07-05T09:47:43.954Z,29.81
2017-07-05T09:50:11.538Z,29.64
2017-07-05T09:52:39.157Z,29.72
2017-07-05T09:55:06.713Z,29.99
2017-07-05T09:57:34.307Z,30.26
2017-07-05T10:00:01.949Z,30.39
2017-07-05T10:02:29.612Z,30.32
2017-07-05T10:04:57.210Z,30.45
2017-07-05T10:07:24.742Z,30.73
2017-07-05T10:09:52.342Z,30.51
2017-07-05T10:12:19.946Z,30.63
2017-07-05T10:14:47.689Z,30.81
2017-07-05T10:17:15.308Z,30.87
2017-07-05T10:19:43.067Z,30.94
2017-07-05T10:22:10.682Z,30.07
2017-07-05T10:24:38.319Z,29.61
2017-07-05T10:27:05.950Z,29.41
2017-07-05T10:29:33.716Z,29.90
2017-07-05T10:32:02.118Z,30.29
2017-07-05T10:34:29.862Z,30.44
2017-07-05T10:36:57.682Z,30.43
2017-07-05T10:39:25.278Z,30.34
2017-07-05T10:41:52.810Z,30.00
2017-07-05T10:44:20.380Z,30.34
2017-07-05T10:46:47.985Z,30.48
2017-07-05T10:49:15.564Z,30.60
2017-07-05T10:51:43.128Z,30.15
2017-07-05T10:54:11.019Z,30.26
2017-07-05T10:56:38.580Z,30.36
2017-07-05T10:59:06.329Z,29.82
2017-07-05T11:01:34.350Z,29.39
2017-07-05T11:04:01.901Z,28.77
2017-07-05T11:06:29.529Z,28.82
2017-07-05T11:08:57.110Z,28.81
2017-07-05T11:11:24.748Z,29.09
2017-07-05T11:13:52.346Z,29.26
2017-07-05T11:16:19.924Z,29.85
2017-07-05T11:18:47.490Z,30.22
2017-07-05T11:21:15.067Z,30.25
2017-07-05T11:23:42.720Z,29.63
2017-07-05T11:26:10.323Z,29.98
2017-07-05T11:28:37.939Z,30.24
2017-07-05T11:31:05.529Z,30.50
2017-07-05T11:33:33.130Z,30.86
2017-07-05T11:36:00.710Z,30.39
2017-07-05T11:38:28.314Z,30.56
2017-07-05T11:40:55.976Z,30.61
2017-07-05T11:43:23.846Z,30.87
2017-07-05T11:45:51.452Z,30.99
2017-07-05T11:48:18.985Z,30.76
2017-07-05T11:50:46.493Z,31.12
2017-07-05T11:53:14.081Z,30.96
2017-07-05T11:55:41.651Z,31.02
2017-07-05T11:58:09.258Z,30.87
2017-07-05T12:00:36.850Z,31.13
2017-07-05T12:03:04.680Z,31.34
2017-07-05T12:05:32.271Z,31.41
2017-07-05T12:07:59.881Z,31.34
2017-07-05T12:10:27.433Z,31.18
2017-07-05T12:12:55.102Z,30.75
2017-07-05T12:15:22.721Z,30.62
2017-07-05T12:17:51.014Z,30.77
2017-07-05T12:20:19.229Z,31.09
2017-07-05T12:22:46.817Z,30.94
2017-07-05T12:25:14.405Z,30.76
2017-07-05T12:27:41.976Z,30.61
2017-07-05T12:30:09.639Z,30.89
2017-07-05T12:32:37.218Z,30.61
2017-07-05T12:35:04.859Z,30.45
2017-07-05T12:37:32.512Z,30.69
2017-07-05T12:40:00.104Z,30.90
2017-07-05T12:42:27.701Z,30.16
2017-07-05T12:44:55.306Z,30.37
2017-07-05T12:47:22.912Z,30.26
2017-07-05T12:49:50.493Z,30.19
2017-07-05T12:52:18.152Z,30.25
2017-07-05T12:54:45.685Z,30.31
2017-07-05T12:57:13.520Z,29.82
2017-07-05T12:59:41.160Z,29.55
2017-07-05T13:02:08.798Z,29.01
2017-07-05T13:04:36.350Z,28.50
2017-07-05T13:07:03.929Z,28.94
2017-07-05T13:09:31.510Z,29.25
2017-07-05T13:11:59.067Z,29.27
2017-07-05T13:14:26.635Z,29.48
2017-07-05T13:16:54.246Z,29.43
2017-07-05T13:19:21.782Z,29.42
2017-07-05T13:21:49.376Z,29.41
2017-07-05T13:24:16.974Z,29.63
2017-07-05T13:26:44.622Z,29.41
2017-07-05T13:29:12.238Z,29.16
2017-07-05T13:31:39.890Z,28.78
2017-07-05T13:34:07.481Z,28.86
2017-07-05T13:36:35.095Z,28.80
2017-07-05T13:39:03.173Z,28.75
2017-07-05T13:41:30.783Z,28.87
2017-07-05T13:43:58.352Z,29.09
2017-07-05T13:46:25.948Z,29.16
2017-07-05T13:48:53.771Z,29.07
2017-07-05T13:51:21.338Z,28.70
2017-07-05T13:53:49.128Z,28.78
2017-07-05T13:56:16.754Z,28.88
2017-07-05T13:58:45.157Z,28.94
2017-07-05T14:01:12.742Z,28.94
2017-07-05T14:03:40.481Z,28.84
2017-07-05T14:06:08.055Z,28.80
2017-07-05T14:08:35.634Z,28.79
2017-07-05T14:11:03.204Z,28.74
2017-07-05T14:13:30.779Z,28.82
2017-07-05T14:15:58.380Z,28.80
2017-07-05T14:18:25.966Z,28.69
2017-07-05T14:20:53.522Z,28.64
2017-07-05T14:23:21.172Z,28.60
2017-07-05T14:25:48.700Z,28.75
2017-07-05T14:28:16.262Z,28.58
2017-07-05T14:30:43.854Z,28.57
2017-07-05T14:33:11.602Z,28.22
2017-07-05T14:35:39.342Z,28.12
2017-07-05T14:38:07.485Z,28.22
2017-07-05T14:40:35.394Z,28.26
2017-07-05T14:43:02.953Z,28.30
2017-07-05T14:45:31.030Z,28.38
2017-07-05T14:47:58.566Z,28.53
2017-07-05T14:50:27.049Z,28.37
2017-07-05T14:52:54.999Z,28.35
2017-07-05T14:55:22.577Z,28.31
2017-07-05T14:57:50.150Z,28.18
2017-07-05T15:00:17.851Z,28.26
2017-07-05T15:02:45.411Z,28.13
2017-07-05T15:05:12.962Z,27.93
2017-07-05T15:07:40.592Z,27.65
2017-07-05T15:10:08.216Z,27.63
2017-07-05T15:12:35.790Z,27.81
2017-07-05T15:15:04.080Z,27.92
2017-07-05T15:17:31.692Z,28.08
2017-07-05T15:19:59.263Z,28.09
2017-07-05T15:22:26.961Z,28.12
2017-07-05T15:24:55.309Z,27.84
2017-07-05T15:27:23.117Z,27.98
2017-07-05T15:29:50.707Z,27.99
2017-07-05T15:32:18.904Z,27.95
2017-07-05T15:34:46.513Z,27.97
2017-07-05T15:37:14.148Z,28.00
2017-07-05T15:39:42.581Z,27.78
2017-07-05T15:42:10.240Z,27.53
2017-07-05T15:44:38.659Z,27.64
2017-07-05T15:47:06.281Z,27.66
2017-07-05T15:49:33.922Z,27.57
2017-07-05T15:52:01.498Z,27.54
2017-07-05T15:54:29.102Z,27.68
2017-07-05T15:56:56.739Z,27.69
2017-07-05T15:59:24.362Z,27.38
2017-07-05T16:01:51.933Z,27.42
2017-07-05T16:04:19.514Z,27.41
2017-07-05T16:06:47.282Z,27.54
2017-07-05T16:09:15.060Z,27.51
2017-07-05T16:11:42.662Z,27.61
2017-07-05T16:14:10.313Z,27.60
2017-07-05T16:16:39.276Z,27.50
2017-07-05T16:19:06.815Z,27.53
2017-07-05T16:21:34.373Z,27.55
2017-07-05T16:24:02.229Z,27.49
2017-07-05T16:26:30.303Z,27.37
2017-07-05T16:28:57.867Z,27.19
2017-07-05T16:31:25.483Z,27.12
2017-07-05T16:33:53.062Z,27.21
2017-07-05T16:36:21.862Z,27.17
2017-07-05T16:38:49.454Z,27.09
2017-07-05T16:41:17.578Z,26.93
2017-07-05T16:43:45.164Z,26.97
2017-07-05T16:46:12.828Z,26.92
2017-07-05T16:48:40.370Z,26.92
2017-07-05T16:51:07.982Z,26.77
2017-07-05T16:53:35.588Z,26.83
2017-07-05T16:56:03.169Z,26.96
2017-07-05T16:58:30.749Z,26.85
2017-07-05T17:00:58.319Z,26.63
2017-07-05T17:03:26.753Z,26.67
2017-07-05T17:05:54.398Z,26.55
2017-07-05T17:08:21.986Z,26.56
2017-07-05T17:10:49.643Z,26.62
2017-07-05T17:13:17.197Z,26.64
2017-07-05T17:15:44.846Z,26.58
2017-07-05T17:18:12.434Z,26.61
2017-07-05T17:20:40.014Z,26.41
2017-07-05T17:23:07.680Z,26.40
2017-07-05T17:25:35.230Z,26.34
2017-07-05T17:28:02.765Z,26.33
2017-07-05T17:30:30.538Z,26.26
2017-07-05T17:32:58.139Z,26.10
2017-07-05T17:35:25.726Z,26.09
2017-07-05T17:37:54.198Z,26.06
2017-07-05T17:40:21.726Z,26.05
2017-07-05T17:42:49.318Z,25.98
2017-07-05T17:45:16.990Z,25.92
2017-07-05T17:47:44.595Z,25.90
2017-07-05T17:50:12.151Z,25.85
2017-07-05T17:52:40.071Z,25.75
2017-07-05T17:55:07.704Z,25.78
2017-07-05T17:57:36.241Z,25.76
2017-07-05T18:00:07.623Z,25.82
2017-07-05T18:02:35.462Z,25.78
2017-07-05T18:05:03.028Z,25.78
2017-07-05T18:07:30.634Z,25.69
2017-07-05T18:09:58.222Z,25.68
2017-07-05T18:12:25.755Z,25.58
2017-07-05T18:14:54.022Z,25.56
2017-07-05T18:17:21.632Z,25.38
2017-07-05T18:19:49.890Z,25.36
2017-07-05T18:22:17.598Z,25.37
2017-07-05T18:24:45.138Z,25.34
2017-07-05T18:27:12.697Z,25.27
2017-07-05T18:29:40.529Z,25.31
2017-07-05T18:32:08.123Z,25.28
2017-07-05T18:34:35.681Z,25.23
2017-07-05T18:37:03.247Z,25.17
2017-07-05T18:39:30.830Z,25.54
2017-07-05T18:41:58.353Z,25.71
2017-07-05T18:44:26.142Z,25.74
2017-07-05T18:46:54.064Z,25.72
2017-07-05T18:49:21.702Z,25.39
2017-07-05T18:51:49.302Z,25.25
2017-07-05T18:54:17.075Z,25.01
2017-07-05T18:56:44.705Z,24.77
2017-07-05T18:59:12.510Z,24.66
2017-07-05T19:01:40.150Z,24.80
2017-07-05T19:04:07.732Z,24.78
2017-07-05T19:06:35.346Z,24.74
2017-07-05T19:09:02.968Z,24.81
2017-07-05T19:11:30.552Z,24.81
2017-07-05T19:13:58.135Z,24.76
2017-07-05T19:16:26.070Z,24.68
2017-07-05T19:18:53.817Z,24.67
2017-07-05T19:21:21.412Z,24.51
2017-07-05T19:23:49.019Z,24.45
2017-07-05T19:26:16.641Z,24.21
2017-07-05T19:28:44.270Z,24.15
2017-07-05T19:31:11.898Z,24.19
2017-07-05T19:33:39.569Z,24.13
2017-07-05T19:36:07.192Z,24.21
2017-07-05T19:38:34.816Z,24.19
2017-07-05T19:41:02.379Z,24.28
2017-07-05T19:43:30.570Z,24.36
2017-07-05T19:45:58.701Z,24.40
2017-07-05T19:48:26.304Z,24.43
2017-07-05T19:50:53.877Z,24.45
2017-07-05T19:53:21.589Z,24.26
2017-07-05T19:55:49.142Z,24.22
2017-07-05T19:58:16.730Z,24.08
2017-07-05T20:00:44.481Z,23.95
2017-07-05T20:03:13.481Z,24.07
2017-07-05T20:05:41.980Z,24.13
2017-07-05T20:08:09.604Z,24.16
2017-07-05T20:10:37.244Z,24.12
2017-07-05T20:13:05.019Z,24.10
2017-07-05T20:15:32.593Z,24.08
2017-07-05T20:18:00.178Z,24.03
2017-07-05T20:20:27.961Z,24.01
2017-07-05T20:22:56.971Z,24.00
2017-07-05T20:25:25.391Z,23.88
2017-07-05T20:27:52.996Z,23.90
2017-07-05T20:30:20.597Z,23.83
2017-07-05T20:32:49.044Z,23.87
2017-07-05T20:35:16.650Z,23.81
2017-07-05T20:37:45.097Z,23.77
2017-07-05T20:40:12.718Z,23.81
2017-07-05T20:42:40.984Z,23.84
2017-07-05T20:45:08.735Z,23.83
2017-07-05T20:47:36.522Z,23.84
2017-07-05T20:50:04.126Z,23.90
2017-07-05T20:52:33.050Z,23.82
2017-07-05T20:55:00.629Z,23.79
2017-07-05T20:57:28.246Z,23.81
2017-07-05T20:59:55.898Z,23.78
2017-07-05T21:02:24.910Z,23.65
2017-07-05T21:04:52.485Z,23.64
2017-07-05T21:07:20.072Z,23.61
2017-07-05T21:09:48.640Z,23.56
2017-07-05T21:12:17.629Z,23.58
2017-07-05T21:14:45.695Z,23.64
2017-07-05T21:17:13.581Z,23.56
2017-07-05T21:19:41.285Z,23.43
2017-07-05T21:22:08.886Z,23.28
2017-07-05T21:24:36.517Z,23.09
2017-07-05T21:27:04.483Z,23.18
2017-07-05T21:29:32.061Z,23.11
2017-07-05T21:31:59.668Z,23.10
2017-07-05T21:34:27.430Z,22.88
2017-07-05T21:36:55.067Z,22.82
2017-07-05T21:39:23.992Z,22.72
2017-07-05T21:41:52.480Z,22.58
2017-07-05T21:44:20.130Z,22.45
2017-07-05T21:46:47.787Z,22.54
2017-07-05T21:49:15.335Z,22.55
2017-07-05T21:51:46.199Z,22.60
2017-07-05T21:54:15.481Z,22.37
2017-07-05T21:56:43.047Z,22.33
2017-07-05T21:59:10.921Z,22.17
2017-07-05T22:01:38.523Z,22.13
2017-07-05T22:04:07.479Z,21.65
2017-07-05T22:06:35.058Z,21.15
2017-07-05T22:09:02.687Z,21.11
2017-07-05T22:11:30.271Z,21.29
2017-07-05T22:13:57.936Z,21.44
2017-07-05T22:16:26.848Z,21.41
2017-07-05T22:18:54.479Z,21.35
2017-07-05T22:21:22.775Z,21.38
2017-07-05T22:23:50.512Z,21.50
2017-07-05T22:26:18.370Z,21.48
2017-07-05T22:28:45.963Z,21.52
2017-07-05T22:31:13.603Z,21.51
2017-07-05T22:33:41.162Z,21.33
2017-07-05T22:36:09.186Z,21.17
2017-07-05T22:38:37.693Z,20.99
2017-07-05T22:41:05.822Z,20.95
2017-07-05T22:43:33.453Z,20.92
2017-07-05T22:46:01.696Z,20.38
2017-07-05T22:48:29.268Z,20.38
2017-07-05T22:50:57.591Z,20.48
2017-07-05T22:53:25.217Z,20.44
2017-07-05T22:55:52.789Z,20.14
2017-07-05T22:58:20.481Z,20.12
2017-07-05T23:00:48.114Z,19.88
2017-07-05T23:03:15.646Z,19.84
2017-07-05T23:05:43.134Z,19.59
2017-07-05T23:08:10.739Z,19.48
2017-07-05T23:10:38.577Z,19.52
2017-07-05T23:13:06.806Z,19.39
2017-07-05T23:15:34.545Z,19.36
2017-07-05T23:18:02.098Z,19.16
2017-07-05T23:20:30.424Z,19.07
2017-07-05T23:22:59.181Z,18.99
2017-07-05T23:25:27.428Z,18.91
2017-07-05T23:27:55.048Z,18.94
2017-07-05T23:30:24.238Z,19.07
2017-07-05T23:32:51.809Z,18.99
2017-07-05T23:35:19.398Z,19.12
2017-07-05T23:37:47.027Z,18.97
2017-07-05T23:40:14.560Z,19.00
2017-07-05T23:42:42.086Z,19.03
2017-07-05T23:45:10.034Z,19.07
2017-07-05T23:47:38.243Z,19.01
2017-07-05T23:50:06.174Z,19.01
2017-07-05T23:52:34.561Z,19.03
2017-07-05T23:55:02.181Z,19.02
2017-07-05T23:57:29.745Z,18.96
2017-07-05T23:59:57.334Z,18.94
